Time;durP1;ratioP1;P1;durP2;ratioP2;P2;SDS_P1;SDS_P2;PMS_P1;PMS_P2;Temp;Humidity;BMP_temperature;BMP_pressure;BME280_temperature;BME280_humidity;BME280_pressure;Samples;Min_cycle;Max_cycle;Signal;HPM_P1;HPM_P2
2023/07/05 00:00:14;;;;;;;339.30;322.40;;;;;;;;;;5012408;28;20038;-68
2023/07/05 00:02:39;;;;;;;334.65;317.98;;;;;;;;;;5007642;28;20042;-68
2023/07/05 00:05:05;;;;;;;335.73;319.00;;;;;;;;;;5009413;28;20025;-68
2023/07/05 00:07:30;;;;;;;343.17;326.20;;;;;;;;;;5006212;28;20340;-62
2023/07/05 00:09:55;;;;;;;275.42;262.08;;;;;;;;;;5012262;28;20415;-64
2023/07/05 00:12:21;;;;;;;239.20;227.57;;;;;;;;;;5008825;28;20048;-65
2023/07/05 00:14:46;;;;;;;142.07;135.05;;;;;;;;;;5016516;28;20061;-68
2023/07/05 00:17:12;;;;;;;74.65;70.95;;;;;;;;;;5011952;28;20080;-71
2023/07/05 00:19:37;;;;;;;41.58;39.47;;;;;;;;;;5011507;28;20404;-62
2023/07/05 00:22:02;;;;;;;31.48;29.83;;;;;;;;;;5008763;28;20451;-62
2023/07/05 00:24:28;;;;;;;44.72;42.42;;;;;;;;;;5011575;28;20504;-61
2023/07/05 00:26:53;;;;;;;66.15;62.78;;;;;;;;;;5011662;28;20029;-60
2023/07/05 00:29:18;;;;;;;60.13;56.83;;;;;;;;;;5010235;28;20471;-61
2023/07/05 00:31:44;;;;;;;88.35;83.55;;;;;;;;;;5009329;28;20443;-61
2023/07/05 00:34:09;;;;;;;114.93;108.45;;;;;;;;;;5008507;28;20601;-63
2023/07/05 00:36:34;;;;;;;90.80;86.20;;;;;;;;;;5007819;28;20726;-63
2023/07/05 00:39:00;;;;;;;102.25;97.05;;;;;;;;;;5009102;28;20061;-62
2023/07/05 00:41:25;;;;;;;105.20;99.95;;;;;;;;;;5008848;28;20072;-62
2023/07/05 00:43:51;;;;;;;74.63;70.63;;;;;;;;;;5007616;28;20248;-62
2023/07/05 00:46:25;;;;;;;61.67;58.53;;;;;;;;;;5013184;28;20042;-62
2023/07/05 00:48:59;;;;;;;61.25;58.05;;;;;;;;;;5008894;28;20291;-62
2023/07/05 00:51:35;;;;;;;52.00;49.35;;;;;;;;;;5012763;28;20041;-62
2023/07/05 00:54:02;;;;;;;51.25;48.40;;;;;;;;;;5012758;28;20038;-62
2023/07/05 00:57:05;;;;;;;48.47;46.00;;;;;;;;;;5012046;28;20034;-61
2023/07/05 00:59:36;;;;;;;45.97;43.47;;;;;;;;;;5012552;28;20080;-61
2023/07/05 01:02:01;;;;;;;41.55;39.42;;;;;;;;;;5013005;28;20041;-62
2023/07/05 01:04:27;;;;;;;40.03;37.97;;;;;;;;;;5013392;28;20509;-61
2023/07/05 01:06:52;;;;;;;36.40;34.50;;;;;;;;;;5012171;28;20045;-61
2023/07/05 01:09:19;;;;;;;37.58;35.58;;;;;;;;;;5013354;28;20036;-62
2023/07/05 01:12:06;;;;;;;37.50;35.47;;;;;;;;;;5005977;28;20037;-61
2023/07/05 01:15:03;;;;;;;37.33;35.20;;;;;;;;;;5015855;28;20052;-61
2023/07/05 01:17:42;;;;;;;37.08;35.08;;;;;;;;;;5009908;28;20179;-62
2023/07/05 01:21:05;;;;;;;40.67;38.60;;;;;;;;;;5015271;28;20030;-61
2023/07/05 01:23:36;;;;;;;39.55;37.50;;;;;;;;;;4992835;28;20491;-61
2023/07/05 01:26:20;;;;;;;52.72;49.95;;;;;;;;;;4994160;28;20045;-61
2023/07/05 01:29:08;;;;;;;46.42;43.95;;;;;;;;;;5009486;28;20467;-61
2023/07/05 01:31:46;;;;;;;57.28;54.33;;;;;;;;;;4989419;28;20057;-62
2023/07/05 01:34:22;;;;;;;57.67;54.75;;;;;;;;;;5009728;28;20125;-61
2023/07/05 01:36:48;;;;;;;50.30;47.75;;;;;;;;;;5013377;28;20060;-62
2023/07/05 01:39:13;;;;;;;41.60;39.45;;;;;;;;;;5013928;28;20037;-61
2023/07/05 01:41:39;;;;;;;46.75;44.38;;;;;;;;;;5011619;28;20048;-61
2023/07/05 01:44:05;;;;;;;48.47;45.95;;;;;;;;;;5013640;28;20029;-61
2023/07/05 01:46:42;;;;;;;208.70;198.15;;;;;;;;;;5011606;28;20029;-61
2023/07/05 01:49:35;;;;;;;175.45;166.73;;;;;;;;;;5022655;28;20376;-61
2023/07/05 01:52:30;;;;;;;180.93;171.95;;;;;;;;;;5009400;28;20139;-61
2023/07/05 01:55:06;;;;;;;124.45;118.32;;;;;;;;;;5005480;28;20130;-61
2023/07/05 01:58:07;;;;;;;200.15;190.30;;;;;;;;;;5015286;28;20044;-62
2023/07/05 02:00:33;;;;;;;152.43;144.90;;;;;;;;;;5010369;28;20124;-61
2023/07/05 02:03:02;;;;;;;179.45;170.60;;;;;;;;;;5012259;28;20034;-62
2023/07/05 02:05:30;;;;;;;174.02;165.40;;;;;;;;;;5012324;28;20083;-61
2023/07/05 02:07:57;;;;;;;178.07;169.30;;;;;;;;;;5010957;28;20042;-62
2023/07/05 02:10:23;;;;;;;203.43;193.38;;;;;;;;;;5012267;28;20077;-62
2023/07/05 02:12:51;;;;;;;158.00;150.05;;;;;;;;;;5013618;28;20466;-62
2023/07/05 02:15:16;;;;;;;201.57;191.73;;;;;;;;;;5016817;28;20052;-62
2023/07/05 02:17:42;;;;;;;171.82;163.35;;;;;;;;;;5010993;28;20097;-62
2023/07/05 02:20:07;;;;;;;160.93;152.93;;;;;;;;;;5015159;28;20374;-62
2023/07/05 02:22:33;;;;;;;192.30;182.70;;;;;;;;;;5011046;28;20033;-62
2023/07/05 02:24:58;;;;;;;191.63;182.10;;;;;;;;;;5010435;28;20088;-62
2023/07/05 02:27:23;;;;;;;197.10;187.20;;;;;;;;;;5013420;28;20456;-62
2023/07/05 02:29:50;;;;;;;198.25;188.40;;;;;;;;;;5011764;28;20038;-63
2023/07/05 02:32:15;;;;;;;157.57;149.65;;;;;;;;;;5010640;28;20830;-61
2023/07/05 02:34:43;;;;;;;143.63;136.52;;;;;;;;;;5010826;28;20120;-61
2023/07/05 02:37:09;;;;;;;131.70;125.15;;;;;;;;;;5013723;28;20175;-61
2023/07/05 02:39:35;;;;;;;168.02;159.63;;;;;;;;;;5012251;28;20212;-61
2023/07/05 02:42:01;;;;;;;167.98;159.60;;;;;;;;;;5011921;28;20033;-61
2023/07/05 02:44:27;;;;;;;142.77;135.70;;;;;;;;;;5010177;28;20472;-61
2023/07/05 02:46:52;;;;;;;155.70;147.93;;;;;;;;;;5011075;28;20140;-61
2023/07/05 02:49:17;;;;;;;136.38;129.30;;;;;;;;;;5010136;28;20278;-61
2023/07/05 02:51:43;;;;;;;162.90;154.85;;;;;;;;;;5011008;28;20521;-61
2023/07/05 02:54:08;;;;;;;159.65;151.77;;;;;;;;;;5012391;28;20502;-61
2023/07/05 02:56:34;;;;;;;141.98;134.95;;;;;;;;;;5011200;28;20038;-61
2023/07/05 02:58:59;;;;;;;148.68;141.30;;;;;;;;;;5011795;28;20329;-61
2023/07/05 03:01:25;;;;;;;153.90;146.30;;;;;;;;;;5010132;28;20100;-62
2023/07/05 03:03:50;;;;;;;171.77;163.32;;;;;;;;;;5008875;28;20041;-62
2023/07/05 03:06:16;;;;;;;152.85;145.32;;;;;;;;;;5008404;28;20086;-62
2023/07/05 03:08:41;;;;;;;141.65;134.65;;;;;;;;;;5011043;28;20073;-62
2023/07/05 03:11:06;;;;;;;170.82;162.52;;;;;;;;;;5009896;28;20034;-62
2023/07/05 03:13:33;;;;;;;112.00;106.40;;;;;;;;;;5014507;28;20456;-63
2023/07/05 03:15:59;;;;;;;147.52;140.25;;;;;;;;;;5008606;28;22183;-62
2023/07/05 03:18:26;;;;;;;150.32;142.95;;;;;;;;;;5010855;28;20071;-62
2023/07/05 03:20:51;;;;;;;153.63;146.07;;;;;;;;;;5014034;28;20483;-62
2023/07/05 03:23:17;;;;;;;132.82;126.25;;;;;;;;;;5010772;28;20602;-62
2023/07/05 03:25:57;;;;;;;129.57;123.20;;;;;;;;;;5010672;28;20033;-61
2023/07/05 03:28:24;;;;;;;118.03;112.20;;;;;;;;;;5008496;28;20047;-63
2023/07/05 03:31:00;;;;;;;131.55;125.05;;;;;;;;;;5007795;28;20033;-62
2023/07/05 03:33:26;;;;;;;141.73;134.75;;;;;;;;;;5010385;28;20446;-62
2023/07/05 03:35:56;;;;;;;133.07;126.38;;;;;;;;;;5011877;28;20133;-63
2023/07/05 03:38:24;;;;;;;133.55;126.72;;;;;;;;;;5011953;28;20030;-62
2023/07/05 03:41:03;;;;;;;168.40;159.73;;;;;;;;;;5012017;28;20128;-62
2023/07/05 03:43:32;;;;;;;137.98;131.18;;;;;;;;;;5011579;28;20045;-63
2023/07/05 03:46:01;;;;;;;159.20;151.38;;;;;;;;;;5010014;28;20033;-64
2023/07/05 03:48:30;;;;;;;160.52;152.63;;;;;;;;;;5011808;28;20553;-63
2023/07/05 03:50:57;;;;;;;167.73;159.50;;;;;;;;;;5012340;28;20060;-63
2023/07/05 03:53:23;;;;;;;165.07;156.98;;;;;;;;;;5007325;28;20052;-62
2023/07/05 03:55:48;;;;;;;164.73;156.55;;;;;;;;;;5007987;28;20435;-62
2023/07/05 03:58:13;;;;;;;172.43;164.00;;;;;;;;;;5013534;28;20060;-63
2023/07/05 04:00:39;;;;;;;144.15;137.10;;;;;;;;;;5012670;28;20137;-63
2023/07/05 04:03:04;;;;;;;170.45;162.13;;;;;;;;;;5010595;28;20040;-63
2023/07/05 04:05:30;;;;;;;152.50;144.40;;;;;;;;;;5009850;28;20034;-63
2023/07/05 04:07:55;;;;;;;148.27;141.02;;;;;;;;;;5007776;28;20095;-64
2023/07/05 04:10:20;;;;;;;160.18;152.38;;;;;;;;;;5009817;28;20454;-63
2023/07/05 04:12:46;;;;;;;151.00;143.60;;;;;;;;;;5010006;28;20060;-64
2023/07/05 04:15:11;;;;;;;136.23;129.52;;;;;;;;;;5007640;28;20033;-64
2023/07/05 04:17:36;;;;;;;156.95;149.27;;;;;;;;;;5006154;28;20379;-64
2023/07/05 04:20:03;;;;;;;138.45;131.65;;;;;;;;;;5009158;28;20409;-63
2023/07/05 04:22:31;;;;;;;138.73;131.57;;;;;;;;;;5011056;28;20065;-64
2023/07/05 04:24:57;;;;;;;144.18;137.13;;;;;;;;;;5016756;28;20036;-62
2023/07/05 04:27:22;;;;;;;146.27;139.13;;;;;;;;;;5005180;28;20067;-62
2023/07/05 04:29:48;;;;;;;143.02;135.88;;;;;;;;;;5009695;28;20443;-62
2023/07/05 04:32:13;;;;;;;150.95;143.55;;;;;;;;;;5013285;28;20522;-62
2023/07/05 04:34:40;;;;;;;120.10;114.18;;;;;;;;;;5015966;28;20348;-63
2023/07/05 04:37:06;;;;;;;111.40;105.85;;;;;;;;;;5013067;28;20040;-64
2023/07/05 04:39:32;;;;;;;124.13;117.95;;;;;;;;;;5016807;28;20037;-70
2023/07/05 04:41:57;;;;;;;121.82;115.82;;;;;;;;;;5014867;28;20133;-64
2023/07/05 04:44:22;;;;;;;111.13;105.65;;;;;;;;;;5015800;28;20663;-66
2023/07/05 04:46:48;;;;;;;116.00;110.28;;;;;;;;;;5012263;28;20343;-64
2023/07/05 04:49:13;;;;;;;113.65;108.03;;;;;;;;;;5019433;28;20045;-65
2023/07/05 04:51:38;;;;;;;107.40;102.07;;;;;;;;;;5010248;28;20131;-66
2023/07/05 04:54:04;;;;;;;105.57;100.28;;;;;;;;;;5014709;28;20048;-65
2023/07/05 04:56:29;;;;;;;93.43;88.85;;;;;;;;;;5014529;28;20045;-70
2023/07/05 04:58:56;;;;;;;90.60;86.13;;;;;;;;;;5013703;28;20820;-66
2023/07/05 05:01:21;;;;;;;83.47;79.38;;;;;;;;;;5015402;28;20471;-69
2023/07/05 05:03:47;;;;;;;75.57;71.82;;;;;;;;;;5015772;28;20038;-65
2023/07/05 05:06:12;;;;;;;69.65;66.18;;;;;;;;;;5014265;28;20084;-63
2023/07/05 05:08:38;;;;;;;72.82;69.15;;;;;;;;;;5014565;28;20037;-66
2023/07/05 05:11:04;;;;;;;69.07;65.63;;;;;;;;;;5015989;28;20601;-66
2023/07/05 05:13:32;;;;;;;59.55;56.55;;;;;;;;;;5012148;28;20045;-67
2023/07/05 05:15:58;;;;;;;50.47;47.75;;;;;;;;;;5010584;28;20046;-69
2023/07/05 05:18:27;;;;;;;48.60;46.15;;;;;;;;;;5013127;28;20029;-70
2023/07/05 05:20:52;;;;;;;49.90;46.50;;;;;;;;;;5014130;28;20116;-71
2023/07/05 05:23:17;;;;;;;43.20;41.00;;;;;;;;;;5013178;28;20523;-68
2023/07/05 05:25:45;;;;;;;47.97;45.55;;;;;;;;;;5018758;28;20049;-69
2023/07/05 05:28:11;;;;;;;36.58;34.67;;;;;;;;;;5012173;28;20041;-68
2023/07/05 05:30:37;;;;;;;45.30;42.92;;;;;;;;;;5015297;28;20033;-69
2023/07/05 05:33:03;;;;;;;50.05;47.50;;;;;;;;;;5011714;28;20099;-70
2023/07/05 05:35:30;;;;;;;61.80;58.67;;;;;;;;;;5013656;28;20038;-70
2023/07/05 05:37:56;;;;;;;59.17;56.15;;;;;;;;;;5013938;28;20033;-70
2023/07/05 05:40:22;;;;;;;66.65;63.30;;;;;;;;;;5016173;28;20037;-75
2023/07/05 05:42:47;;;;;;;65.00;61.70;;;;;;;;;;5013481;28;20033;-70
2023/07/05 05:45:13;;;;;;;74.50;70.75;;;;;;;;;;5013834;28;20364;-71
2023/07/05 05:47:38;;;;;;;62.67;59.55;;;;;;;;;;5017077;28;20045;-68
2023/07/05 05:50:04;;;;;;;61.40;57.00;;;;;;;;;;5011881;28;20120;-68
2023/07/05 05:52:30;;;;;;;72.85;69.22;;;;;;;;;;5012505;28;20068;-68
2023/07/05 05:54:55;;;;;;;65.63;62.35;;;;;;;;;;5010697;28;20098;-71
2023/07/05 05:57:20;;;;;;;39.60;37.58;;;;;;;;;;5014109;28;20037;-68
2023/07/05 05:59:46;;;;;;;41.80;39.67;;;;;;;;;;5016610;28;20117;-69
2023/07/05 06:02:12;;;;;;;38.05;36.10;;;;;;;;;;5012997;28;20682;-70
2023/07/05 06:04:37;;;;;;;38.17;36.22;;;;;;;;;;5010862;28;20033;-70
2023/07/05 06:07:03;;;;;;;31.27;29.02;;;;;;;;;;5012695;28;20103;-70
2023/07/05 06:09:28;;;;;;;29.50;27.85;;;;;;;;;;5013812;28;20045;-70
2023/07/05 06:11:53;;;;;;;21.30;20.13;;;;;;;;;;5013382;28;20637;-69
2023/07/05 06:14:19;;;;;;;18.38;17.38;;;;;;;;;;5014651;28;20034;-71
2023/07/05 06:16:44;;;;;;;19.23;18.08;;;;;;;;;;5013102;28;20030;-69
2023/07/05 06:19:10;;;;;;;21.08;19.90;;;;;;;;;;5013490;28;20107;-67
2023/07/05 06:21:35;;;;;;;18.38;17.15;;;;;;;;;;5015003;28;20033;-70
2023/07/05 06:24:00;;;;;;;21.08;19.92;;;;;;;;;;5014295;28;20084;-68
2023/07/05 06:26:26;;;;;;;16.75;15.77;;;;;;;;;;5012823;28;20094;-70
2023/07/05 06:28:51;;;;;;;15.50;14.60;;;;;;;;;;5010601;28;20033;-69
2023/07/05 06:31:18;;;;;;;16.48;15.57;;;;;;;;;;5010908;28;20108;-70
2023/07/05 06:33:43;;;;;;;16.33;15.38;;;;;;;;;;4999023;28;20065;-69
2023/07/05 06:36:09;;;;;;;17.67;16.67;;;;;;;;;;5012824;28;20041;-69
2023/07/05 06:38:35;;;;;;;16.20;14.88;;;;;;;;;;5009184;28;20038;-69
2023/07/05 06:41:01;;;;;;;15.80;14.90;;;;;;;;;;5011336;28;20032;-69
2023/07/05 06:43:26;;;;;;;15.35;14.45;;;;;;;;;;5008374;28;20042;-69
2023/07/05 06:45:54;;;;;;;13.73;12.93;;;;;;;;;;5011263;28;20029;-70
2023/07/05 06:48:20;;;;;;;15.18;14.27;;;;;;;;;;5008366;28;20684;-69
2023/07/05 06:50:55;;;;;;;14.50;13.60;;;;;;;;;;5008899;28;20037;-68
2023/07/05 06:53:22;;;;;;;15.32;14.43;;;;;;;;;;5008210;28;20345;-70
2023/07/05 06:55:48;;;;;;;13.98;13.18;;;;;;;;;;5005959;28;20126;-69
2023/07/05 06:58:14;;;;;;;14.02;13.23;;;;;;;;;;5006734;28;20956;-69
2023/07/05 07:00:40;;;;;;;14.50;13.60;;;;;;;;;;4997703;28;20099;-69
2023/07/05 07:03:05;;;;;;;15.80;14.75;;;;;;;;;;5002086;28;20038;-70
2023/07/05 07:05:31;;;;;;;15.45;14.55;;;;;;;;;;5007793;28;20078;-69
2023/07/05 07:07:56;;;;;;;17.92;16.92;;;;;;;;;;5009251;28;20471;-69
2023/07/05 07:10:22;;;;;;;27.95;26.35;;;;;;;;;;5008122;28;20029;-67
2023/07/05 07:12:47;;;;;;;35.72;33.88;;;;;;;;;;5005909;28;20374;-67
2023/07/05 07:15:12;;;;;;;34.53;32.72;;;;;;;;;;5009961;28;20491;-73
2023/07/05 07:17:38;;;;;;;36.35;34.40;;;;;;;;;;5008906;28;20064;-64
2023/07/05 07:20:04;;;;;;;30.67;29.05;;;;;;;;;;4991646;28;20041;-65
2023/07/05 07:22:29;;;;;;;40.38;38.15;;;;;;;;;;5004690;28;20025;-64
2023/07/05 07:24:55;;;;;;;28.27;26.77;;;;;;;;;;5008485;28;20494;-64
2023/07/05 07:27:20;;;;;;;26.60;25.20;;;;;;;;;;5008457;28;20716;-65
2023/07/05 07:29:45;;;;;;;26.33;24.92;;;;;;;;;;5009196;28;20037;-69
2023/07/05 07:32:11;;;;;;;36.25;34.38;;;;;;;;;;5009882;28;20056;-65
2023/07/05 07:34:36;;;;;;;37.38;35.38;;;;;;;;;;5010135;28;20029;-65
2023/07/05 07:37:02;;;;;;;25.98;24.23;;;;;;;;;;5012520;28;20086;-69
2023/07/05 07:39:29;;;;;;;24.33;23.02;;;;;;;;;;5011740;28;20029;-70
2023/07/05 07:41:55;;;;;;;29.30;27.70;;;;;;;;;;5006068;28;20037;-70
2023/07/05 07:44:20;;;;;;;30.15;28.58;;;;;;;;;;5012507;28;20022;-64
2023/07/05 07:46:45;;;;;;;33.88;32.10;;;;;;;;;;5011948;28;20048;-63
2023/07/05 07:49:11;;;;;;;33.15;31.35;;;;;;;;;;5010900;28;20041;-63
2023/07/05 07:51:39;;;;;;;24.80;23.50;;;;;;;;;;5010525;28;20116;-63
2023/07/05 07:54:07;;;;;;;38.97;36.85;;;;;;;;;;5008517;28;20049;-64
2023/07/05 07:56:32;;;;;;;31.50;29.88;;;;;;;;;;5013375;28;20026;-69
2023/07/05 07:58:59;;;;;;;33.92;32.15;;;;;;;;;;5011778;28;20410;-71
2023/07/05 08:01:32;;;;;;;17.52;16.52;;;;;;;;;;5008818;28;20042;-68
2023/07/05 08:03:59;;;;;;;23.90;22.63;;;;;;;;;;5011365;28;20136;-71
2023/07/05 08:06:40;;;;;;;23.63;22.02;;;;;;;;;;5009849;28;20103;-71
2023/07/05 08:09:08;;;;;;;32.72;30.92;;;;;;;;;;5006659;28;20057;-72
2023/07/05 08:11:34;;;;;;;31.38;29.67;;;;;;;;;;5011352;28;20464;-73
2023/07/05 08:13:59;;;;;;;21.92;20.73;;;;;;;;;;5010383;28;20041;-64
2023/07/05 08:16:25;;;;;;;26.73;25.23;;;;;;;;;;5009772;28;20037;-64
2023/07/05 08:18:51;;;;;;;33.50;31.75;;;;;;;;;;5010594;28;20038;-64
2023/07/05 08:21:17;;;;;;;22.15;20.85;;;;;;;;;;5011922;28;20051;-71
2023/07/05 08:23:43;;;;;;;24.92;23.60;;;;;;;;;;5011838;28;20038;-71
2023/07/05 08:26:09;;;;;;;22.30;20.90;;;;;;;;;;5009102;28;20053;-70
2023/07/05 08:28:35;;;;;;;26.75;25.33;;;;;;;;;;5010717;28;20048;-73
2023/07/05 08:31:02;;;;;;;23.25;22.00;;;;;;;;;;5011858;28;20033;-62
2023/07/05 08:33:31;;;;;;;23.10;21.85;;;;;;;;;;5010925;28;20034;-66
2023/07/05 08:36:11;;;;;;;22.70;21.48;;;;;;;;;;5012543;28;20080;-66
2023/07/05 08:38:42;;;;;;;19.70;18.63;;;;;;;;;;5011404;28;20048;-66
2023/07/05 08:41:28;;;;;;;21.30;20.10;;;;;;;;;;5011195;28;20040;-67
2023/07/05 08:44:16;;;;;;;18.90;17.85;;;;;;;;;;5016674;28;20060;-66
2023/07/05 08:46:45;;;;;;;21.45;20.15;;;;;;;;;;5010769;28;20040;-72
2023/07/05 08:49:19;;;;;;;20.17;18.97;;;;;;;;;;5013510;28;20545;-66
2023/07/05 08:51:44;;;;;;;22.63;21.38;;;;;;;;;;5010871;28;20045;-66
2023/07/05 08:54:13;;;;;;;24.27;22.75;;;;;;;;;;5011552;28;20034;-65
2023/07/05 08:56:43;;;;;;;23.27;21.98;;;;;;;;;;5011014;28;20170;-66
2023/07/05 08:59:46;;;;;;;24.13;22.83;;;;;;;;;;5011628;28;20041;-67
2023/07/05 09:02:15;;;;;;;25.63;24.23;;;;;;;;;;5007416;28;20046;-71
2023/07/05 09:04:41;;;;;;;25.17;23.27;;;;;;;;;;5010061;28;20104;-72
2023/07/05 09:08:00;;;;;;;26.33;24.90;;;;;;;;;;5011287;28;20492;-71
2023/07/05 09:10:38;;;;;;;24.98;23.65;;;;;;;;;;4968786;28;20459;-67
2023/07/05 09:13:31;;;;;;;29.33;27.52;;;;;;;;;;5001495;28;20041;-67
2023/07/05 09:16:00;;;;;;;28.02;26.52;;;;;;;;;;5005060;28;20046;-68
2023/07/05 09:19:05;;;;;;;27.77;26.30;;;;;;;;;;5013211;28;20470;-67
2023/07/05 09:21:37;;;;;;;28.70;27.17;;;;;;;;;;5011026;28;20052;-68
2023/07/05 09:24:15;;;;;;;30.38;28.58;;;;;;;;;;5014912;28;20032;-66
2023/07/05 09:27:05;;;;;;;29.17;27.63;;;;;;;;;;5016188;28;20029;-67
2023/07/05 09:29:33;;;;;;;33.80;32.00;;;;;;;;;;5016527;28;20246;-67
2023/07/05 09:32:10;;;;;;;33.35;31.63;;;;;;;;;;5013680;28;20029;-66
2023/07/05 09:34:43;;;;;;;29.45;27.77;;;;;;;;;;5011046;28;20037;-67
2023/07/05 09:37:31;;;;;;;31.05;29.45;;;;;;;;;;5012804;28;20042;-64
2023/07/05 09:39:59;;;;;;;34.30;32.47;;;;;;;;;;5013868;28;20030;-69
2023/07/05 09:42:43;;;;;;;35.67;33.78;;;;;;;;;;5011247;28;20041;-68
2023/07/05 09:45:13;;;;;;;32.88;31.17;;;;;;;;;;5012366;28;20048;-65
2023/07/05 09:47:39;;;;;;;32.28;30.58;;;;;;;;;;5014171;28;20064;-65
2023/07/05 09:50:13;;;;;;;29.27;27.67;;;;;;;;;;5013372;28;20091;-65
2023/07/05 09:52:39;;;;;;;31.80;30.13;;;;;;;;;;5009913;28;20037;-67
2023/07/05 09:55:12;;;;;;;31.48;29.88;;;;;;;;;;5012999;28;20434;-66
2023/07/05 09:57:38;;;;;;;28.52;27.00;;;;;;;;;;5014484;28;20088;-64
2023/07/05 10:00:17;;;;;;;28.33;26.83;;;;;;;;;;5011635;28;20048;-65
2023/07/05 10:02:43;;;;;;;29.10;27.60;;;;;;;;;;5015030;28;20364;-70
2023/07/05 10:05:14;;;;;;;31.15;29.55;;;;;;;;;;5014995;28;20042;-69
2023/07/05 10:07:52;;;;;;;29.67;28.13;;;;;;;;;;5014585;28;20507;-70
2023/07/05 10:10:18;;;;;;;33.05;31.35;;;;;;;;;;5011041;28;20052;-70
2023/07/05 10:12:43;;;;;;;34.50;32.72;;;;;;;;;;5011430;28;20512;-69
2023/07/05 10:15:21;;;;;;;29.95;28.38;;;;;;;;;;5013494;28;20451;-68
2023/07/05 10:17:49;;;;;;;29.67;28.13;;;;;;;;;;5013951;28;20030;-67
2023/07/05 10:20:23;;;;;;;31.55;29.92;;;;;;;;;;5013753;28;20068;-66
2023/07/05 10:23:04;;;;;;;32.60;30.90;;;;;;;;;;5013310;28;20030;-70
2023/07/05 10:25:41;;;;;;;29.73;27.73;;;;;;;;;;5012963;28;20419;-67
2023/07/05 10:28:11;;;;;;;32.20;30.52;;;;;;;;;;5013346;28;20068;-73
2023/07/05 10:31:00;;;;;;;41.58;39.47;;;;;;;;;;5011244;28;20054;-69
2023/07/05 10:33:28;;;;;;;45.70;43.35;;;;;;;;;;5010109;28;20127;-69
2023/07/05 10:36:04;;;;;;;54.22;51.50;;;;;;;;;;5014249;28;20037;-69
2023/07/05 10:38:31;;;;;;;43.55;41.35;;;;;;;;;;5013514;28;20392;-68
2023/07/05 10:41:19;;;;;;;54.58;51.83;;;;;;;;;;5012868;28;20243;-68
2023/07/05 10:43:57;;;;;;;54.88;52.05;;;;;;;;;;5013544;28;20052;-70
2023/07/05 10:46:25;;;;;;;65.90;62.60;;;;;;;;;;5011682;28;20132;-68
2023/07/05 10:48:52;;;;;;;68.00;64.63;;;;;;;;;;5012662;28;20037;-70
2023/07/05 10:51:26;;;;;;;75.50;71.75;;;;;;;;;;5009359;28;20324;-66
2023/07/05 10:54:03;;;;;;;76.68;72.90;;;;;;;;;;5009070;28;20111;-69
2023/07/05 10:56:34;;;;;;;77.07;73.25;;;;;;;;;;5012975;28;21535;-68
2023/07/05 10:59:25;;;;;;;75.20;71.50;;;;;;;;;;5009610;28;20033;-67
2023/07/05 11:01:57;;;;;;;65.78;62.50;;;;;;;;;;5010336;28;20440;-68
2023/07/05 11:04:28;;;;;;;62.88;59.67;;;;;;;;;;5009399;28;20339;-69
2023/07/05 11:07:00;;;;;;;66.38;63.10;;;;;;;;;;5009997;28;20121;-70
2023/07/05 11:09:28;;;;;;;83.80;79.65;;;;;;;;;;5006213;28;20049;-70
2023/07/05 11:11:58;;;;;;;92.65;88.07;;;;;;;;;;5012523;28;20037;-71
2023/07/05 11:14:28;;;;;;;76.53;72.78;;;;;;;;;;5010356;28;20205;-73
2023/07/05 11:16:55;;;;;;;48.60;46.10;;;;;;;;;;5010158;28;20107;-71
2023/07/05 11:19:26;;;;;;;91.43;86.93;;;;;;;;;;5007167;28;20068;-70
2023/07/05 11:21:52;;;;;;;66.32;63.00;;;;;;;;;;5011112;28;20033;-72
2023/07/05 11:24:30;;;;;;;99.95;95.05;;;;;;;;;;5010889;28;20050;-70
2023/07/05 11:26:55;;;;;;;56.15;53.35;;;;;;;;;;5010367;28;20167;-72
2023/07/05 11:29:27;;;;;;;50.97;48.42;;;;;;;;;;5010452;28;20030;-73
2023/07/05 11:31:52;;;;;;;57.08;54.13;;;;;;;;;;5010211;28;20030;-72
2023/07/05 11:34:20;;;;;;;76.93;73.10;;;;;;;;;;5017000;28;20045;-73
2023/07/05 11:36:47;;;;;;;45.10;42.80;;;;;;;;;;5009824;28;20076;-66
2023/07/05 11:39:41;;;;;;;42.83;40.65;;;;;;;;;;5009279;28;20030;-71
2023/07/05 11:42:15;;;;;;;44.22;41.95;;;;;;;;;;5009900;28;20455;-71
2023/07/05 11:44:45;;;;;;;37.90;35.95;;;;;;;;;;5010486;28;20467;-70
2023/07/05 11:47:22;;;;;;;32.42;30.73;;;;;;;;;;5010572;28;20049;-71
2023/07/05 11:49:52;;;;;;;40.80;38.72;;;;;;;;;;5014054;28;20490;-72
2023/07/05 11:52:23;;;;;;;38.93;36.83;;;;;;;;;;5007674;28;20139;-70
2023/07/05 11:54:59;;;;;;;58.90;55.95;;;;;;;;;;5010577;28;20108;-69
2023/07/05 11:57:26;;;;;;;39.60;37.55;;;;;;;;;;5009192;28;20034;-68
2023/07/05 11:59:55;;;;;;;44.30;42.10;;;;;;;;;;5012140;28;20502;-67
2023/07/05 12:02:36;;;;;;;50.22;47.67;;;;;;;;;;5007608;28;20064;-70
2023/07/05 12:05:08;;;;;;;38.92;36.92;;;;;;;;;;5014115;28;20131;-74
2023/07/05 12:07:35;;;;;;;60.00;57.00;;;;;;;;;;5009479;28;20547;-72
2023/07/05 12:10:01;;;;;;;42.40;40.20;;;;;;;;;;5010177;28;20044;-68
2023/07/05 12:12:26;;;;;;;35.28;33.47;;;;;;;;;;5017995;28;20443;-72
2023/07/05 12:14:52;;;;;;;35.13;33.30;;;;;;;;;;5008655;28;20136;-76
2023/07/05 12:17:21;;;;;;;41.20;39.10;;;;;;;;;;5009211;28;20030;-76
2023/07/05 12:19:48;;;;;;;38.22;36.25;;;;;;;;;;5009030;28;20038;-75
2023/07/05 12:22:25;;;;;;;33.45;31.65;;;;;;;;;;5008141;28;20524;-71
2023/07/05 12:24:53;;;;;;;33.00;31.30;;;;;;;;;;5008748;28;20412;-70
2023/07/05 12:27:21;;;;;;;41.90;39.78;;;;;;;;;;5010820;28;20484;-77
2023/07/05 12:29:57;;;;;;;34.78;32.85;;;;;;;;;;5012647;28;20044;-71
2023/07/05 12:32:28;;;;;;;32.53;30.83;;;;;;;;;;5008500;28;20065;-75
2023/07/05 12:35:12;;;;;;;39.85;37.83;;;;;;;;;;5013718;28;20061;-69
2023/07/05 12:37:37;;;;;;;34.63;32.83;;;;;;;;;;5007919;28;20507;-67
2023/07/05 12:40:19;;;;;;;31.73;30.08;;;;;;;;;;5010096;28;20048;-68
2023/07/05 12:42:59;;;;;;;32.90;31.13;;;;;;;;;;5011753;28;20470;-71
2023/07/05 12:45:30;;;;;;;34.58;32.78;;;;;;;;;;5011244;28;20178;-72
2023/07/05 12:47:57;;;;;;;32.20;30.50;;;;;;;;;;5013616;28;20262;-68
2023/07/05 12:50:24;;;;;;;32.70;30.98;;;;;;;;;;5014985;28;20026;-69
2023/07/05 12:53:01;;;;;;;37.25;35.35;;;;;;;;;;5017954;28;20033;-72
2023/07/05 12:55:28;;;;;;;41.22;39.13;;;;;;;;;;5014389;28;20065;-71
2023/07/05 12:57:55;;;;;;;37.58;35.58;;;;;;;;;;5012314;28;20046;-70
2023/07/05 13:00:21;;;;;;;48.25;45.80;;;;;;;;;;5016138;28;20037;-66
2023/07/05 13:02:46;;;;;;;51.78;49.15;;;;;;;;;;5014105;28;20412;-70
2023/07/05 13:05:12;;;;;;;56.55;53.58;;;;;;;;;;5013067;28;20048;-73
2023/07/05 13:07:39;;;;;;;37.80;35.90;;;;;;;;;;5012783;28;20052;-69
2023/07/05 13:10:06;;;;;;;45.22;42.95;;;;;;;;;;5017269;28;20033;-66
2023/07/05 13:12:45;;;;;;;52.00;49.33;;;;;;;;;;5013358;28;20502;-67
2023/07/05 13:15:10;;;;;;;56.17;53.35;;;;;;;;;;5011520;28;20115;-68
2023/07/05 13:17:35;;;;;;;54.33;51.63;;;;;;;;;;5009996;28;20471;-69
2023/07/05 13:20:14;;;;;;;51.50;48.85;;;;;;;;;;5014709;28;20049;-68
2023/07/05 13:22:48;;;;;;;52.28;49.63;;;;;;;;;;5011887;28;20348;-70
2023/07/05 13:25:29;;;;;;;48.50;46.03;;;;;;;;;;5015366;28;20033;-70
2023/07/05 13:27:56;;;;;;;50.85;48.25;;;;;;;;;;5016243;28;20034;-69
2023/07/05 13:30:23;;;;;;;43.83;41.58;;;;;;;;;;5015129;28;20364;-68
2023/07/05 13:32:54;;;;;;;44.50;42.22;;;;;;;;;;5014107;28;20120;-68
2023/07/05 13:35:21;;;;;;;43.58;41.35;;;;;;;;;;5011941;28;20037;-67
2023/07/05 13:37:46;;;;;;;48.78;46.30;;;;;;;;;;5011668;28;20026;-69
2023/07/05 13:40:21;;;;;;;52.03;49.42;;;;;;;;;;5014375;28;20094;-70
2023/07/05 13:42:50;;;;;;;47.50;44.75;;;;;;;;;;5016352;28;20103;-69
2023/07/05 13:45:22;;;;;;;52.05;49.40;;;;;;;;;;5012469;28;20133;-65
2023/07/05 13:47:48;;;;;;;51.97;49.35;;;;;;;;;;5002935;28;20030;-65
2023/07/05 13:50:14;;;;;;;58.28;55.35;;;;;;;;;;5011153;28;20061;-71
2023/07/05 13:52:41;;;;;;;54.90;52.10;;;;;;;;;;5011571;28;20088;-67
2023/07/05 13:55:18;;;;;;;67.95;64.55;;;;;;;;;;5015676;28;20142;-68
2023/07/05 13:57:57;;;;;;;67.50;64.13;;;;;;;;;;5022538;28;20478;-64
2023/07/05 14:00:26;;;;;;;65.97;62.70;;;;;;;;;;5016625;28;20060;-65
2023/07/05 14:02:53;;;;;;;54.65;51.90;;;;;;;;;;5013007;28;20029;-69
2023/07/05 14:05:18;;;;;;;49.75;47.20;;;;;;;;;;5019410;28;20021;-69
2023/07/05 14:07:44;;;;;;;50.22;47.70;;;;;;;;;;5018199;28;20042;-71
2023/07/05 14:10:14;;;;;;;47.55;45.15;;;;;;;;;;5013395;28;20044;-66
2023/07/05 14:12:39;;;;;;;42.70;40.45;;;;;;;;;;5012351;28;20045;-68
2023/07/05 14:15:21;;;;;;;46.78;44.38;;;;;;;;;;5017003;28;20510;-67
2023/07/05 14:17:47;;;;;;;48.45;46.00;;;;;;;;;;5010790;28;20033;-63
2023/07/05 14:20:13;;;;;;;47.53;45.10;;;;;;;;;;5013906;28;20037;-63
2023/07/05 14:22:38;;;;;;;46.47;44.08;;;;;;;;;;5011430;28;20491;-69
2023/07/05 14:25:13;;;;;;;53.55;50.78;;;;;;;;;;5014231;28;20064;-67